createdAt,value
2023-03-15T00:01:15.726Z,96795.65
2023-03-15T00:03:43.658Z,96801.11
2023-03-15T00:06:11.907Z,96803.14
2023-03-15T00:08:38.927Z,96803.13
2023-03-15T00:11:06.760Z,96805.65
2023-03-15T00:13:33.907Z,96803.84
2023-03-15T00:16:02.470Z,96796.67
2023-03-15T00:18:29.033Z,96798.05
2023-03-15T00:20:56.084Z,96797.64
2023-03-15T00:23:22.553Z,96795.20
2023-03-15T00:25:51.040Z,96806.73
2023-03-15T00:28:17.955Z,96807.83
2023-03-15T00:30:44.778Z,96808.70
2023-03-15T00:33:12.592Z,96804.98
2023-03-15T00:35:41.192Z,96806.52
2023-03-15T00:38:08.329Z,96801.34
2023-03-15T00:40:37.093Z,96802.45
2023-03-15T00:43:05.771Z,96806.09
2023-03-15T00:45:32.930Z,96816.36
2023-03-15T00:47:59.877Z,96822.58
2023-03-15T00:50:26.645Z,96818.04
2023-03-15T00:52:53.338Z,96827.44
2023-03-15T00:55:20.054Z,96831.51
2023-03-15T00:57:47.444Z,96836.91
2023-03-15T01:00:18.823Z,96837.23
2023-03-15T01:02:45.485Z,96836.95
2023-03-15T01:05:12.369Z,96837.02
2023-03-15T01:07:39.047Z,96839.77
2023-03-15T01:10:07.532Z,96841.86
2023-03-15T01:12:34.696Z,96840.56
2023-03-15T01:15:03.855Z,96843.55
2023-03-15T01:17:30.541Z,96848.48
2023-03-15T01:19:58.727Z,96854.81
2023-03-15T01:22:26.618Z,96865.58
2023-03-15T01:24:53.453Z,96878.63
2023-03-15T01:27:20.729Z,96895.06
2023-03-15T01:29:47.606Z,96905.72
2023-03-15T01:32:14.640Z,96921.68
2023-03-15T01:34:41.592Z,96942.42
2023-03-15T01:37:09.535Z,96955.29
2023-03-15T01:39:36.048Z,96961.92
2023-03-15T01:42:03.063Z,96969.58
2023-03-15T01:45:26.063Z,96974.94
2023-03-15T01:47:52.691Z,96985.88
2023-03-15T01:50:19.557Z,96996.48
2023-03-15T01:52:46.184Z,97011.39
2023-03-15T01:55:16.737Z,97015.23
2023-03-15T01:57:51.839Z,97025.20
2023-03-15T02:00:20.393Z,97034.67
2023-03-15T02:02:49.150Z,97044.20
2023-03-15T02:05:21.882Z,97051.88
2023-03-15T02:07:50.292Z,97062.64
2023-03-15T02:10:23.424Z,97071.11
2023-03-15T02:12:52.476Z,97082.48
2023-03-15T02:15:19.274Z,97087.48
2023-03-15T02:17:48.072Z,97097.27
2023-03-15T02:20:23.542Z,97109.81
2023-03-15T02:23:00.364Z,97110.66
2023-03-15T02:25:42.368Z,97114.31
2023-03-15T02:28:12.330Z,97119.64
2023-03-15T02:30:39.499Z,97123.84
2023-03-15T02:33:11.048Z,97129.90
2023-03-15T02:35:37.631Z,97133.58
2023-03-15T02:38:04.156Z,97134.70
2023-03-15T02:40:31.208Z,97143.27
2023-03-15T02:43:04.320Z,97148.85
2023-03-15T02:45:36.834Z,97154.98
2023-03-15T02:48:05.619Z,97162.39
2023-03-15T02:50:32.484Z,97170.77
2023-03-15T02:52:58.977Z,97177.15
2023-03-15T02:55:25.555Z,97186.53
2023-03-15T02:57:52.155Z,97193.56
2023-03-15T03:00:18.922Z,97202.84
2023-03-15T03:02:47.577Z,97211.28
2023-03-15T03:05:15.725Z,97214.44
2023-03-15T03:07:42.488Z,97222.68
2023-03-15T03:10:11.107Z,97234.27
2023-03-15T03:12:37.560Z,97236.70
2023-03-15T03:15:05.207Z,97250.91
2023-03-15T03:17:33.272Z,97253.31
2023-03-15T03:19:59.816Z,97254.15
2023-03-15T03:22:26.468Z,97247.59
2023-03-15T03:24:53.146Z,97254.33
2023-03-15T03:27:19.606Z,97260.70
2023-03-15T03:29:46.226Z,97275.60
2023-03-15T03:32:12.825Z,97279.45
2023-03-15T03:34:39.502Z,97285.89
2023-03-15T03:37:06.275Z,97288.80
2023-03-15T03:39:32.809Z,97301.77
2023-03-15T03:41:59.449Z,97299.69
2023-03-15T03:44:26.105Z,97305.19
2023-03-15T03:46:54.756Z,97305.83
2023-03-15T03:49:21.250Z,97309.52
2023-03-15T03:51:47.693Z,97303.02
2023-03-15T03:54:17.116Z,97313.00
2023-03-15T03:56:44.155Z,97303.74
2023-03-15T03:59:10.589Z,97313.16
2023-03-15T04:01:37.145Z,97317.04
2023-03-15T04:04:03.697Z,97319.78
2023-03-15T04:06:30.473Z,97320.63
2023-03-15T04:08:57.307Z,97331.72
2023-03-15T04:11:23.953Z,97336.88
2023-03-15T04:13:50.501Z,97342.98
2023-03-15T04:16:17.081Z,97355.08
2023-03-15T04:18:43.728Z,97359.09
2023-03-15T04:21:10.172Z,97363.91
2023-03-15T04:23:38.338Z,97368.57
2023-03-15T04:26:05.703Z,97368.41
2023-03-15T04:28:32.337Z,97368.65
2023-03-15T04:30:59.105Z,97372.65
2023-03-15T04:33:26.243Z,97374.66
2023-03-15T04:35:52.747Z,97369.73
2023-03-15T04:38:20.072Z,97374.37
2023-03-15T04:40:46.725Z,97375.70
2023-03-15T04:43:13.313Z,97374.76
2023-03-15T04:45:39.943Z,97379.08
2023-03-15T04:48:10.059Z,97376.56
2023-03-15T04:50:36.561Z,97382.42
2023-03-15T04:53:03.064Z,97383.32
2023-03-15T04:55:29.735Z,97376.61
2023-03-15T04:57:56.126Z,97383.04
2023-03-15T05:00:23.060Z,97395.33
2023-03-15T05:02:49.706Z,97397.96
2023-03-15T05:05:16.253Z,97402.27
2023-03-15T05:07:42.729Z,97407.46
2023-03-15T05:10:10.218Z,97408.17
2023-03-15T05:12:36.678Z,97416.10
2023-03-15T05:15:03.516Z,97416.16
2023-03-15T05:17:30.093Z,97412.08
2023-03-15T05:19:56.580Z,97418.84
2023-03-15T05:22:23.041Z,97421.63
2023-03-15T05:24:49.633Z,97424.83
2023-03-15T05:27:16.178Z,97425.08
2023-03-15T05:29:42.719Z,97431.91
2023-03-15T05:32:09.370Z,97434.13
2023-03-15T05:34:35.848Z,97439.42
2023-03-15T05:37:02.523Z,97446.60
2023-03-15T05:39:29.114Z,97450.46
2023-03-15T05:41:55.748Z,97453.84
2023-03-15T05:44:22.396Z,97447.90
2023-03-15T05:46:48.962Z,97457.02
2023-03-15T05:49:17.061Z,97461.34
2023-03-15T05:51:43.665Z,97467.92
2023-03-15T05:54:10.409Z,97472.95
2023-03-15T05:56:36.855Z,97482.59
2023-03-15T05:59:03.318Z,97481.56
2023-03-15T06:01:29.969Z,97486.24
2023-03-15T06:03:56.696Z,97491.14
2023-03-15T06:06:23.221Z,97494.32
2023-03-15T06:08:49.659Z,97498.12
2023-03-15T06:11:16.271Z,97501.50
2023-03-15T06:13:42.807Z,97507.13
2023-03-15T06:16:09.458Z,97515.06
2023-03-15T06:18:35.864Z,97518.43
2023-03-15T06:21:02.343Z,97518.57
2023-03-15T06:23:28.853Z,97528.34
2023-03-15T06:25:55.458Z,97533.64
2023-03-15T06:28:21.959Z,97538.05
2023-03-15T06:30:48.534Z,97537.89
2023-03-15T06:33:15.040Z,97542.12
2023-03-15T06:35:41.605Z,97546.64
2023-03-15T06:38:08.863Z,97545.27
2023-03-15T06:40:36.469Z,97549.82
2023-03-15T06:43:03.008Z,97554.55
2023-03-15T06:45:29.558Z,97561.41
2023-03-15T06:47:55.970Z,97563.86
2023-03-15T06:50:26.166Z,97570.55
2023-03-15T06:52:52.673Z,97576.38
2023-03-15T06:55:19.115Z,97581.83
2023-03-15T06:57:45.799Z,97581.77
2023-03-15T07:00:13.066Z,97582.75
2023-03-15T07:02:39.792Z,97589.30
2023-03-15T07:05:07.933Z,97592.66
2023-03-15T07:07:34.501Z,97596.05
2023-03-15T07:10:01.055Z,97593.92
2023-03-15T07:12:27.841Z,97591.71
2023-03-15T07:14:54.419Z,97589.16
2023-03-15T07:17:20.815Z,97591.86
2023-03-15T07:19:56.184Z,97595.17
2023-03-15T07:22:23.484Z,97594.17
2023-03-15T07:24:50.040Z,97589.98
2023-03-15T07:27:19.237Z,97591.41
2023-03-15T07:29:46.004Z,97596.05
2023-03-15T07:32:12.468Z,97600.27
2023-03-15T07:34:39.380Z,97605.77
2023-03-15T07:37:05.920Z,97614.85
2023-03-15T07:39:32.534Z,97616.61
2023-03-15T07:41:59.594Z,97617.27
2023-03-15T07:44:26.360Z,97618.91
2023-03-15T07:46:53.240Z,97623.50
2023-03-15T07:49:19.864Z,97625.98
2023-03-15T07:51:50.089Z,97621.19
2023-03-15T07:54:16.648Z,97622.64
2023-03-15T07:56:43.179Z,97621.23
2023-03-15T07:59:09.819Z,97622.39
2023-03-15T08:01:36.699Z,97616.81
2023-03-15T08:04:03.722Z,97621.84
2023-03-15T08:06:30.170Z,97621.88
2023-03-15T08:08:56.633Z,97620.92
2023-03-15T08:11:23.266Z,97627.25
2023-03-15T08:13:49.694Z,97624.94
2023-03-15T08:16:16.356Z,97629.78
2023-03-15T08:18:42.870Z,97635.64
2023-03-15T08:21:09.269Z,97642.86
2023-03-15T08:23:35.820Z,97640.14
2023-03-15T08:26:02.467Z,97644.33
2023-03-15T08:28:28.950Z,97640.05
2023-03-15T08:30:55.703Z,97645.19
2023-03-15T08:33:22.263Z,97644.39
2023-03-15T08:35:53.692Z,97645.55
2023-03-15T08:38:20.177Z,97649.29
2023-03-15T08:40:46.610Z,97652.97
2023-03-15T08:43:13.029Z,97658.64
2023-03-15T08:45:56.932Z,97652.67
2023-03-15T08:48:25.893Z,97660.41
2023-03-15T08:50:52.439Z,97654.19
2023-03-15T08:53:22.952Z,97657.73
2023-03-15T08:55:49.628Z,97662.63
2023-03-15T08:58:16.351Z,97658.55
2023-03-15T09:00:42.794Z,97663.02
2023-03-15T09:03:09.467Z,97665.30
2023-03-15T09:05:36.435Z,97659.48
2023-03-15T09:08:03.256Z,97674.13
2023-03-15T09:10:29.693Z,97676.34
2023-03-15T09:12:56.451Z,97678.17
2023-03-15T09:15:22.959Z,97670.60
2023-03-15T09:17:50.664Z,97677.31
2023-03-15T09:20:17.182Z,97684.05
2023-03-15T09:22:44.985Z,97683.25
2023-03-15T09:25:11.551Z,97691.66
2023-03-15T09:27:38.296Z,97697.31
2023-03-15T09:30:05.651Z,97696.90
2023-03-15T09:32:32.549Z,97697.55
2023-03-15T09:34:59.059Z,97702.00
2023-03-15T09:37:25.459Z,97698.77
2023-03-15T09:39:52.000Z,97703.52
2023-03-15T09:42:56.198Z,97701.25
2023-03-15T09:45:58.437Z,97699.09
2023-03-15T09:48:33.003Z,97705.92
2023-03-15T09:51:14.179Z,97705.22
2023-03-15T09:54:04.913Z,97707.41
2023-03-15T09:56:39.557Z,97705.64
2023-03-15T09:59:06.802Z,97707.20
2023-03-15T10:01:39.473Z,97706.98
2023-03-15T10:04:12.511Z,97713.37
2023-03-15T10:06:45.325Z,97718.01
2023-03-15T10:09:18.199Z,97720.72
2023-03-15T10:12:00.279Z,97718.77
2023-03-15T10:15:04.954Z,97725.64
2023-03-15T10:17:59.447Z,97730.47
2023-03-15T10:20:33.202Z,97725.73
2023-03-15T10:23:15.549Z,97736.88
2023-03-15T10:25:43.689Z,97738.95
2023-03-15T10:28:14.304Z,97738.14
2023-03-15T10:30:47.425Z,97738.94
2023-03-15T10:33:23.661Z,97739.90
2023-03-15T10:35:52.487Z,97743.45
2023-03-15T10:38:24.828Z,97743.39
2023-03-15T10:40:53.986Z,97746.02
2023-03-15T10:43:23.805Z,97747.58
2023-03-15T10:46:01.486Z,97748.36
2023-03-15T10:48:31.211Z,97744.56
2023-03-15T10:51:03.184Z,97745.97
2023-03-15T10:53:29.644Z,97743.79
2023-03-15T10:56:05.135Z,97743.55
2023-03-15T10:59:01.569Z,97744.71
2023-03-15T11:01:34.823Z,97741.92
2023-03-15T11:04:06.797Z,97744.31
2023-03-15T11:06:48.350Z,97744.09
2023-03-15T11:09:16.701Z,97751.46
2023-03-15T11:11:57.364Z,97752.53
2023-03-15T11:14:24.625Z,97749.59
2023-03-15T11:16:55.290Z,97747.72
2023-03-15T11:19:26.882Z,97752.43
2023-03-15T11:21:55.070Z,97751.75
2023-03-15T11:24:26.354Z,97753.25
2023-03-15T11:26:55.913Z,97758.64
2023-03-15T11:29:35.437Z,97760.38
2023-03-15T11:32:12.260Z,97759.96
2023-03-15T11:34:38.638Z,97759.02
2023-03-15T11:37:14.236Z,97761.05
2023-03-15T11:39:53.782Z,97763.73
2023-03-15T11:42:34.128Z,97762.40
2023-03-15T11:45:09.036Z,97762.48
2023-03-15T11:47:51.486Z,97771.75
2023-03-15T11:50:18.634Z,97769.14
2023-03-15T11:52:50.167Z,97766.94
2023-03-15T11:55:24.985Z,97774.43
2023-03-15T11:57:54.550Z,97773.06
2023-03-15T12:00:31.970Z,97781.36
2023-03-15T12:03:19.890Z,97780.30
2023-03-15T12:05:49.430Z,97779.49
2023-03-15T12:08:45.133Z,97778.19
2023-03-15T12:11:18.689Z,97773.44
2023-03-15T12:13:57.136Z,97767.44
2023-03-15T12:16:27.272Z,97783.52
2023-03-15T12:18:58.351Z,97785.33
2023-03-15T12:21:44.785Z,97777.95
2023-03-15T12:24:21.467Z,97783.34
2023-03-15T12:27:03.491Z,97778.09
2023-03-15T12:29:32.609Z,97784.31
2023-03-15T12:31:59.011Z,97779.81
2023-03-15T12:34:42.656Z,97782.77
2023-03-15T12:37:38.369Z,97775.08
2023-03-15T12:40:17.245Z,97782.33
2023-03-15T12:42:43.686Z,97779.27
2023-03-15T12:45:16.563Z,97779.74
2023-03-15T12:47:52.212Z,97779.11
2023-03-15T12:50:56.653Z,97778.56
2023-03-15T12:53:32.027Z,97779.13
2023-03-15T12:56:47.224Z,97775.67
2023-03-15T12:59:53.565Z,97772.20
2023-03-15T13:02:42.210Z,97778.54
2023-03-15T13:05:09.696Z,97776.08
2023-03-15T13:07:57.668Z,97780.05
2023-03-15T13:10:49.955Z,97787.31
2023-03-15T13:13:43.800Z,97784.05
2023-03-15T13:16:29.869Z,97776.23
2023-03-15T13:19:21.737Z,97776.99
2023-03-15T13:21:54.126Z,97782.58
2023-03-15T13:24:27.318Z,97785.12
2023-03-15T13:27:09.223Z,97791.42
2023-03-15T13:29:36.588Z,97796.66
2023-03-15T13:32:17.213Z,97802.08
2023-03-15T13:34:48.329Z,97801.88
2023-03-15T13:37:26.746Z,97805.17
2023-03-15T13:40:13.462Z,97804.77
2023-03-15T13:42:40.876Z,97805.15
2023-03-15T13:45:15.368Z,97806.95
2023-03-15T13:47:44.426Z,97807.66
2023-03-15T13:50:16.957Z,97813.05
2023-03-15T13:52:44.317Z,97817.88
2023-03-15T13:55:22.314Z,97808.52
2023-03-15T13:57:57.055Z,97813.55
2023-03-15T14:00:24.389Z,97819.11
2023-03-15T14:03:00.884Z,97819.31
2023-03-15T14:05:31.759Z,97824.33
2023-03-15T14:08:05.688Z,97826.91
2023-03-15T14:10:35.106Z,97825.84
2023-03-15T14:13:24.888Z,97821.48
2023-03-15T14:16:01.908Z,97824.45
2023-03-15T14:18:46.305Z,97819.64
2023-03-15T14:21:32.229Z,97829.59
2023-03-15T14:24:06.741Z,97822.31
2023-03-15T14:26:36.092Z,97837.21
2023-03-15T14:29:15.726Z,97835.84
2023-03-15T14:31:49.303Z,97841.13
2023-03-15T14:34:30.876Z,97843.59
2023-03-15T14:36:57.485Z,97842.15
2023-03-15T14:39:42.013Z,97848.40
2023-03-15T14:42:11.948Z,97856.79
2023-03-15T14:44:38.729Z,97853.83
2023-03-15T14:47:16.958Z,97845.70
2023-03-15T14:49:43.606Z,97850.79
2023-03-15T14:52:12.833Z,97856.55
2023-03-15T14:54:48.495Z,97853.30
2023-03-15T14:57:14.971Z,97860.13
2023-03-15T14:59:41.668Z,97858.16
2023-03-15T15:02:18.313Z,97859.52
2023-03-15T15:04:44.894Z,97857.69
2023-03-15T15:07:14.201Z,97864.95
2023-03-15T15:09:46.640Z,97863.64
2023-03-15T15:12:13.424Z,97861.46
2023-03-15T15:14:39.855Z,97867.63
2023-03-15T15:17:06.409Z,97868.90
2023-03-15T15:19:32.877Z,97865.83
2023-03-15T15:21:59.387Z,97863.81
2023-03-15T15:24:27.280Z,97873.63
2023-03-15T15:26:54.013Z,97881.70
2023-03-15T15:29:20.466Z,97879.30
2023-03-15T15:31:47.293Z,97885.48
2023-03-15T15:34:13.936Z,97880.66
2023-03-15T15:36:43.376Z,97886.55
2023-03-15T15:39:23.041Z,97884.17
2023-03-15T15:41:50.103Z,97889.66
2023-03-15T15:44:19.769Z,97884.29
2023-03-15T15:46:46.315Z,97878.99
2023-03-15T15:49:13.260Z,97884.17
2023-03-15T15:51:42.494Z,97892.09
2023-03-15T15:54:15.629Z,97896.89
2023-03-15T15:56:50.930Z,97905.11
2023-03-15T15:59:19.106Z,97903.52
2023-03-15T16:01:59.377Z,97905.33
2023-03-15T16:04:29.883Z,97909.94
2023-03-15T16:07:02.852Z,97911.36
2023-03-15T16:09:33.443Z,97915.66
2023-03-15T16:11:59.852Z,97923.80
2023-03-15T16:14:26.763Z,97928.02
2023-03-15T16:16:53.241Z,97923.67
2023-03-15T16:19:19.928Z,97925.37
2023-03-15T16:21:49.867Z,97927.71
2023-03-15T16:24:24.074Z,97932.13
2023-03-15T16:26:51.368Z,97937.21
2023-03-15T16:29:21.010Z,97941.44
2023-03-15T16:31:49.855Z,97947.81
2023-03-15T16:34:18.976Z,97959.93
2023-03-15T16:36:49.575Z,97962.08
2023-03-15T16:39:17.418Z,97963.85
2023-03-15T16:41:43.990Z,97966.89
2023-03-15T16:44:15.696Z,97964.02
2023-03-15T16:46:42.805Z,97967.13
2023-03-15T16:49:09.956Z,97970.66
2023-03-15T16:51:45.200Z,97972.83
2023-03-15T16:54:24.305Z,97978.44
2023-03-15T16:56:57.444Z,97981.77
2023-03-15T16:59:23.992Z,97982.00
2023-03-15T17:01:50.624Z,97979.29
2023-03-15T17:04:17.558Z,97985.00
2023-03-15T17:06:48.958Z,97993.11
2023-03-15T17:09:19.848Z,97991.27
2023-03-15T17:11:48.071Z,97994.24
2023-03-15T17:14:29.577Z,97999.65
2023-03-15T17:16:56.221Z,97997.45
2023-03-15T17:19:22.660Z,98003.80
2023-03-15T17:21:49.304Z,98003.13
2023-03-15T17:24:16.033Z,98007.98
2023-03-15T17:26:42.495Z,98015.06
2023-03-15T17:29:11.009Z,98017.86
2023-03-15T17:31:37.681Z,98020.74
2023-03-15T17:34:04.180Z,98020.34
2023-03-15T17:36:36.167Z,98021.59
2023-03-15T17:39:03.997Z,98024.90
2023-03-15T17:41:33.003Z,98031.11
2023-03-15T17:43:59.514Z,98038.58
2023-03-15T17:46:27.699Z,98035.91
2023-03-15T17:48:54.921Z,98041.97
2023-03-15T17:51:24.201Z,98044.92
2023-03-15T17:53:51.453Z,98041.89
2023-03-15T17:56:18.732Z,98040.73
2023-03-15T17:58:45.886Z,98046.11
2023-03-15T18:01:25.340Z,98049.97
2023-03-15T18:03:52.176Z,98052.31
2023-03-15T18:06:20.621Z,98049.68
2023-03-15T18:08:51.353Z,98051.52
2023-03-15T18:11:34.254Z,98055.92
2023-03-15T18:14:00.817Z,98049.84
2023-03-15T18:16:27.282Z,98051.66
2023-03-15T18:18:53.895Z,98055.36
2023-03-15T18:21:23.908Z,98059.77
2023-03-15T18:23:51.177Z,98059.68
2023-03-15T18:26:19.574Z,98055.59
2023-03-15T18:28:46.819Z,98058.07
2023-03-15T18:31:19.104Z,98054.57
2023-03-15T18:33:46.242Z,98051.61
2023-03-15T18:36:12.873Z,98050.35
2023-03-15T18:38:40.075Z,98049.80
2023-03-15T18:41:27.495Z,98051.80
2023-03-15T18:43:54.034Z,98053.49
2023-03-15T18:46:23.188Z,98053.23
2023-03-15T18:48:50.290Z,98055.69
2023-03-15T18:51:17.582Z,98058.98
2023-03-15T18:53:44.935Z,98061.28
2023-03-15T18:56:20.601Z,98064.44
2023-03-15T18:58:48.567Z,98069.30
2023-03-15T19:01:16.837Z,98074.11
2023-03-15T19:03:43.610Z,98076.73
2023-03-15T19:06:12.086Z,98075.55
2023-03-15T19:08:39.206Z,98080.59
2023-03-15T19:11:08.508Z,98082.53
2023-03-15T19:13:35.248Z,98083.05
2023-03-15T19:16:02.379Z,98088.30
2023-03-15T19:18:29.808Z,98089.03
2023-03-15T19:20:56.288Z,98088.78
2023-03-15T19:23:22.742Z,98088.52
2023-03-15T19:25:49.808Z,98082.79
2023-03-15T19:28:16.712Z,98089.50
2023-03-15T19:30:43.216Z,98093.87
2023-03-15T19:33:10.190Z,98100.07
2023-03-15T19:35:36.929Z,98105.57
2023-03-15T19:38:03.733Z,98107.02
2023-03-15T19:40:30.281Z,98102.26
2023-03-15T19:42:56.867Z,98105.62
2023-03-15T19:45:23.892Z,98103.08
2023-03-15T19:47:50.434Z,98105.80
2023-03-15T19:50:17.169Z,98106.46
2023-03-15T19:52:44.366Z,98108.55
2023-03-15T19:55:12.710Z,98108.80
2023-03-15T19:57:39.288Z,98107.64
2023-03-15T20:00:06.751Z,98107.13
2023-03-15T20:02:33.380Z,98111.94
2023-03-15T20:04:59.834Z,98116.43
2023-03-15T20:07:26.383Z,98120.63
2023-03-15T20:09:53.128Z,98125.79
2023-03-15T20:12:21.319Z,98125.95
2023-03-15T20:14:47.861Z,98132.83
2023-03-15T20:17:14.471Z,98140.86
2023-03-15T20:19:40.875Z,98142.43
2023-03-15T20:22:07.401Z,98145.62
2023-03-15T20:24:33.990Z,98141.90
2023-03-15T20:27:00.496Z,98143.61
2023-03-15T20:29:26.940Z,98151.17
2023-03-15T20:31:53.755Z,98152.61
2023-03-15T20:34:20.433Z,98155.39
2023-03-15T20:36:46.810Z,98154.72
2023-03-15T20:39:13.319Z,98151.33
2023-03-15T20:41:39.981Z,98151.54
2023-03-15T20:44:07.555Z,98153.49
2023-03-15T20:46:34.547Z,98155.92
2023-03-15T20:49:01.438Z,98163.00
2023-03-15T20:51:28.022Z,98165.96
2023-03-15T20:53:54.640Z,98167.44
2023-03-15T20:56:21.104Z,98164.52
2023-03-15T20:58:48.041Z,98165.75
